createdAt,value
2017-09-23T00:00:10.815Z,20.80
2017-09-23T00:02:45.401Z,21.80
2017-09-23T00:05:20.141Z,23.80
2017-09-23T00:07:54.827Z,24.90
2017-09-23T00:10:30.498Z,24.47
2017-09-23T00:13:05.247Z,26.90
2017-09-23T00:15:40.041Z,26.30
2017-09-23T00:18:15.779Z,24.27
2017-09-23T00:20:50.434Z,23.30
2017-09-23T00:23:25.087Z,23.00
2017-09-23T00:25:59.756Z,21.67
2017-09-23T00:28:34.623Z,24.00
2017-09-23T00:31:09.274Z,22.60
2017-09-23T00:33:43.957Z,24.37
2017-09-23T00:36:18.827Z,24.87
2017-09-23T00:38:53.706Z,24.87
2017-09-23T00:41:28.334Z,24.43
2017-09-23T00:44:02.821Z,26.30
2017-09-23T00:46:38.115Z,25.90
2017-09-23T00:49:12.746Z,25.90
2017-09-23T00:51:47.199Z,27.57
2017-09-23T00:54:21.911Z,25.20
2017-09-23T00:56:56.959Z,27.10
2017-09-23T00:59:31.689Z,26.00
2017-09-23T01:02:07.136Z,25.27
2017-09-23T01:04:41.547Z,24.93
2017-09-23T01:07:16.370Z,24.87
2017-09-23T01:09:51.727Z,24.87
2017-09-23T01:12:26.311Z,25.67
2017-09-23T01:15:01.240Z,25.87
2017-09-23T01:17:35.955Z,26.07
2017-09-23T01:20:10.681Z,26.17
2017-09-23T01:22:44.967Z,25.33
2017-09-23T01:25:19.340Z,24.20
2017-09-23T01:27:54.278Z,24.83
2017-09-23T01:30:29.086Z,24.90
2017-09-23T01:33:03.853Z,23.93
2017-09-23T01:35:38.868Z,23.03
2017-09-23T01:38:13.294Z,23.87
2017-09-23T01:40:48.139Z,23.90
2017-09-23T01:43:22.764Z,22.30
2017-09-23T01:45:57.398Z,23.43
2017-09-23T01:48:32.024Z,23.43
2017-09-23T01:51:07.035Z,23.90
2017-09-23T01:53:41.876Z,23.27
2017-09-23T01:56:17.111Z,23.07
2017-09-23T01:58:52.058Z,24.03
2017-09-23T02:01:26.607Z,24.17
2017-09-23T02:04:01.399Z,24.07
2017-09-23T02:06:36.001Z,22.30
2017-09-23T02:09:10.676Z,23.40
2017-09-23T02:11:45.463Z,24.83
2017-09-23T02:14:20.182Z,23.03
2017-09-23T02:16:55.187Z,24.17
2017-09-23T02:19:29.932Z,24.40
2017-09-23T02:22:04.758Z,24.33
2017-09-23T02:24:39.463Z,23.50
2017-09-23T02:27:14.087Z,23.80
2017-09-23T02:29:48.852Z,23.03
2017-09-23T02:32:23.485Z,23.03
2017-09-23T02:34:58.142Z,26.10
2017-09-23T02:37:32.803Z,27.20
2017-09-23T02:40:07.491Z,26.10
2017-09-23T02:42:42.178Z,24.33
2017-09-23T02:45:16.682Z,24.20
2017-09-23T02:47:52.409Z,23.00
2017-09-23T02:50:27.968Z,24.03
2017-09-23T02:53:02.695Z,24.20
2017-09-23T02:55:37.465Z,22.87
2017-09-23T02:58:12.546Z,23.13
2017-09-23T03:00:47.567Z,26.13
2017-09-23T03:03:22.386Z,29.30
2017-09-23T03:05:57.236Z,29.47
2017-09-23T03:08:32.047Z,30.30
2017-09-23T03:11:06.880Z,26.87
2017-09-23T03:13:42.472Z,27.80
2017-09-23T03:16:17.334Z,29.93
2017-09-23T03:18:52.273Z,28.80
2017-09-23T03:21:27.077Z,27.70
2017-09-23T03:24:01.787Z,24.67
2017-09-23T03:26:36.437Z,24.30
2017-09-23T03:29:11.042Z,29.53
2017-09-23T03:31:45.778Z,31.27
2017-09-23T03:34:20.703Z,29.00
2017-09-23T03:36:55.455Z,30.83
2017-09-23T03:39:30.246Z,28.77
2017-09-23T03:42:04.759Z,29.07
2017-09-23T03:44:39.640Z,32.43
2017-09-23T03:47:14.352Z,30.70
2017-09-23T03:49:48.899Z,31.40
2017-09-23T03:52:23.835Z,30.50
2017-09-23T03:54:58.452Z,29.40
2017-09-23T03:57:33.150Z,31.87
2017-09-23T04:00:08.639Z,32.10
2017-09-23T04:02:43.252Z,27.90
2017-09-23T04:05:18.771Z,27.57
2017-09-23T04:07:53.392Z,32.03
2017-09-23T04:10:29.107Z,31.50
2017-09-23T04:13:03.779Z,36.00
2017-09-23T04:15:38.395Z,35.40
2017-09-23T04:18:14.245Z,34.93
2017-09-23T04:20:49.111Z,32.67
2017-09-23T04:23:23.913Z,32.40
2017-09-23T04:25:58.646Z,33.67
2017-09-23T04:28:34.224Z,33.53
2017-09-23T04:31:08.811Z,33.50
2017-09-23T04:33:44.401Z,35.30
2017-09-23T04:36:19.162Z,37.40
2017-09-23T04:38:53.688Z,37.73
2017-09-23T04:41:29.278Z,33.83
2017-09-23T04:44:03.899Z,37.47
2017-09-23T04:46:38.570Z,35.00
2017-09-23T04:49:13.078Z,36.60
2017-09-23T04:51:47.779Z,37.70
2017-09-23T04:54:22.735Z,37.53
2017-09-23T04:56:57.683Z,37.43
2017-09-23T04:59:32.677Z,42.30
2017-09-23T05:02:07.382Z,41.97
2017-09-23T05:04:42.104Z,42.17
2017-09-23T05:07:16.827Z,41.50
2017-09-23T05:09:51.458Z,44.57
2017-09-23T05:12:26.283Z,44.90
2017-09-23T05:15:00.860Z,42.30
2017-09-23T05:17:35.577Z,47.40
2017-09-23T05:20:10.401Z,46.03
2017-09-23T05:22:45.254Z,50.07
2017-09-23T05:25:19.925Z,49.30
2017-09-23T05:27:54.464Z,47.10
2017-09-23T05:30:29.163Z,48.97
2017-09-23T05:33:03.836Z,42.47
2017-09-23T05:35:38.033Z,41.53
2017-09-23T05:38:12.951Z,44.37
2017-09-23T05:40:47.851Z,47.17
2017-09-23T05:43:22.563Z,48.43
2017-09-23T05:45:57.384Z,47.60
2017-09-23T05:48:33.012Z,49.27
2017-09-23T05:51:07.659Z,52.73
2017-09-23T05:53:42.496Z,54.47
2017-09-23T05:56:17.274Z,54.30
2017-09-23T05:58:52.172Z,51.50
2017-09-23T06:01:27.002Z,52.70
2017-09-23T06:04:01.926Z,51.70
2017-09-23T06:06:37.036Z,50.37
2017-09-23T06:09:11.648Z,50.70
2017-09-23T06:11:46.391Z,52.67
2017-09-23T06:14:21.163Z,48.70
2017-09-23T06:16:56.814Z,47.53
2017-09-23T06:19:31.559Z,49.67
2017-09-23T06:22:06.088Z,52.70
2017-09-23T06:24:41.703Z,47.30
2017-09-23T06:27:16.571Z,53.80
2017-09-23T06:29:51.070Z,55.47
2017-09-23T06:32:25.876Z,54.90
2017-09-23T06:35:00.699Z,55.60
2017-09-23T06:37:35.502Z,57.83
2017-09-23T06:40:10.442Z,50.57
2017-09-23T06:42:45.235Z,49.67
2017-09-23T06:45:20.227Z,41.40
2017-09-23T06:47:55.298Z,47.40
2017-09-23T06:50:30.298Z,48.00
2017-09-23T06:53:04.910Z,45.27
2017-09-23T06:55:39.472Z,50.90
2017-09-23T06:58:14.152Z,45.97
2017-09-23T07:00:49.093Z,50.70
2017-09-23T07:03:23.574Z,50.33
2017-09-23T07:05:58.415Z,50.80
2017-09-23T07:08:33.044Z,49.37
2017-09-23T07:11:07.555Z,47.00
2017-09-23T07:13:42.403Z,44.87
2017-09-23T07:16:17.113Z,46.80
2017-09-23T07:18:52.706Z,48.27
2017-09-23T07:21:27.056Z,42.20
2017-09-23T07:24:02.179Z,40.90
2017-09-23T07:26:37.407Z,46.80
2017-09-23T07:29:11.975Z,42.90
2017-09-23T07:31:47.285Z,37.13
2017-09-23T07:34:22.299Z,40.60
2017-09-23T07:36:57.090Z,41.67
2017-09-23T07:39:31.710Z,42.67
2017-09-23T07:42:06.143Z,43.80
2017-09-23T07:44:40.742Z,44.37
2017-09-23T07:47:16.270Z,45.73
2017-09-23T07:49:51.199Z,45.83
2017-09-23T07:52:26.090Z,46.23
2017-09-23T07:55:01.177Z,43.57
2017-09-23T07:57:35.811Z,44.60
2017-09-23T08:00:10.267Z,42.97
2017-09-23T08:02:45.231Z,43.60
2017-09-23T08:05:19.992Z,39.37
2017-09-23T08:07:54.815Z,48.60
2017-09-23T08:10:29.551Z,44.80
2017-09-23T08:13:03.862Z,44.40
2017-09-23T08:15:39.111Z,47.87
2017-09-23T08:18:13.930Z,47.00
2017-09-23T08:20:48.440Z,52.23
2017-09-23T08:23:23.516Z,44.00
2017-09-23T08:25:58.215Z,39.60
2017-09-23T08:28:32.999Z,40.43
2017-09-23T08:31:07.606Z,41.07
2017-09-23T08:33:42.314Z,40.50
2017-09-23T08:36:18.163Z,40.23
2017-09-23T08:38:52.907Z,43.83
2017-09-23T08:41:27.489Z,37.40
2017-09-23T08:44:02.718Z,42.80
2017-09-23T08:46:37.424Z,43.10
2017-09-23T08:49:12.173Z,47.33
2017-09-23T08:51:46.883Z,45.63
2017-09-23T08:54:21.795Z,45.50
2017-09-23T08:56:56.911Z,44.40
2017-09-23T08:59:31.564Z,43.67
2017-09-23T09:02:06.330Z,46.20
2017-09-23T09:04:41.019Z,46.30
2017-09-23T09:07:15.807Z,38.57
2017-09-23T09:09:50.521Z,45.70
2017-09-23T09:12:26.263Z,43.80
2017-09-23T09:15:01.250Z,43.27
2017-09-23T09:17:36.071Z,37.87
2017-09-23T09:20:11.295Z,73.63
2017-09-23T09:22:45.930Z,57.80
2017-09-23T09:25:20.900Z,49.30
2017-09-23T09:27:55.990Z,56.27
2017-09-23T09:30:30.745Z,49.90
2017-09-23T09:33:05.138Z,44.80
2017-09-23T09:35:40.377Z,45.73
2017-09-23T09:38:15.026Z,44.00
2017-09-23T09:40:50.067Z,40.27
2017-09-23T09:43:24.789Z,42.37
2017-09-23T09:45:59.623Z,41.00
2017-09-23T09:48:34.316Z,42.40
2017-09-23T09:51:09.030Z,43.80
2017-09-23T09:53:43.725Z,42.93
2017-09-23T09:56:18.562Z,41.60
2017-09-23T09:58:53.552Z,41.10
2017-09-23T10:01:28.661Z,37.77
2017-09-23T10:04:03.519Z,40.60
2017-09-23T10:06:38.337Z,40.07
2017-09-23T10:09:12.997Z,42.53
2017-09-23T10:11:47.769Z,42.50
2017-09-23T10:14:22.823Z,41.80
2017-09-23T10:16:57.639Z,42.07
2017-09-23T10:19:32.147Z,40.37
2017-09-23T10:22:07.115Z,41.20
2017-09-23T10:24:41.839Z,40.47
2017-09-23T10:27:16.346Z,41.30
2017-09-23T10:29:51.638Z,42.13
2017-09-23T10:32:26.355Z,40.00
2017-09-23T10:35:01.057Z,35.87
2017-09-23T10:37:35.928Z,41.00
2017-09-23T10:40:10.673Z,40.00
2017-09-23T10:42:45.309Z,37.90
2017-09-23T10:45:19.774Z,37.60
2017-09-23T10:47:54.547Z,37.17
2017-09-23T10:50:29.156Z,37.33
2017-09-23T10:53:03.591Z,40.53
2017-09-23T10:55:38.527Z,38.13
2017-09-23T10:58:13.471Z,38.10
2017-09-23T11:00:48.485Z,39.67
2017-09-23T11:03:23.424Z,38.20
2017-09-23T11:05:58.222Z,38.57
2017-09-23T11:08:32.855Z,38.50
2017-09-23T11:11:07.575Z,38.63
2017-09-23T11:13:42.295Z,38.37
2017-09-23T11:16:16.802Z,40.07
2017-09-23T11:18:52.595Z,38.93
2017-09-23T11:21:27.097Z,37.37
2017-09-23T11:24:01.903Z,37.50
2017-09-23T11:26:36.550Z,37.27
2017-09-23T11:29:11.160Z,37.70
2017-09-23T11:31:45.911Z,36.93
2017-09-23T11:34:20.824Z,37.80
2017-09-23T11:36:56.526Z,33.40
2017-09-23T11:39:30.999Z,35.23
2017-09-23T11:42:05.554Z,33.43
2017-09-23T11:44:40.079Z,37.67
2017-09-23T11:47:14.903Z,37.07
2017-09-23T11:49:49.632Z,36.50
2017-09-23T11:52:25.367Z,37.23
2017-09-23T11:55:00.047Z,35.60
2017-09-23T11:57:34.671Z,37.60
2017-09-23T12:00:09.403Z,35.70
2017-09-23T12:02:44.190Z,35.50
2017-09-23T12:05:18.801Z,29.27
2017-09-23T12:07:53.499Z,35.60
2017-09-23T12:10:28.194Z,35.87
2017-09-23T12:13:02.592Z,34.47
2017-09-23T12:15:37.495Z,32.40
2017-09-23T12:18:12.118Z,32.07
2017-09-23T12:20:46.719Z,34.67
2017-09-23T12:23:22.342Z,33.33
2017-09-23T12:25:56.989Z,34.97
2017-09-23T12:28:31.612Z,35.30
2017-09-23T12:31:06.376Z,32.83
2017-09-23T12:33:41.030Z,32.90
2017-09-23T12:36:16.607Z,33.87
2017-09-23T12:38:51.326Z,33.53
2017-09-23T12:41:26.082Z,35.70
2017-09-23T12:44:00.735Z,32.30
2017-09-23T12:46:35.549Z,33.60
2017-09-23T12:49:11.293Z,34.60
2017-09-23T12:51:46.751Z,32.80
2017-09-23T12:54:21.561Z,33.10
2017-09-23T12:56:56.182Z,33.50
2017-09-23T12:59:30.726Z,33.60
2017-09-23T13:02:05.606Z,33.87
2017-09-23T13:04:40.551Z,34.00
2017-09-23T13:07:15.418Z,33.03
2017-09-23T13:09:50.229Z,32.97
2017-09-23T13:12:24.855Z,34.60
2017-09-23T13:14:59.531Z,36.33
2017-09-23T13:17:34.225Z,32.60
2017-09-23T13:20:09.057Z,33.27
2017-09-23T13:22:43.899Z,34.30
2017-09-23T13:25:18.720Z,36.43
2017-09-23T13:27:53.475Z,33.47
2017-09-23T13:30:27.998Z,33.60
2017-09-23T13:33:03.613Z,36.10
2017-09-23T13:35:38.149Z,33.17
2017-09-23T13:38:12.892Z,32.37
2017-09-23T13:40:49.146Z,34.97
2017-09-23T13:43:24.440Z,34.60
2017-09-23T13:45:59.497Z,34.53
2017-09-23T13:48:34.279Z,35.97
2017-09-23T13:51:09.017Z,29.17
2017-09-23T13:53:43.615Z,33.50
2017-09-23T13:56:18.354Z,33.13
2017-09-23T13:58:52.884Z,33.80
2017-09-23T14:01:27.716Z,34.53
2017-09-23T14:04:03.404Z,31.73
2017-09-23T14:06:38.683Z,31.97
2017-09-23T14:09:13.709Z,32.53
2017-09-23T14:11:48.634Z,35.40
2017-09-23T14:14:22.952Z,36.03
2017-09-23T14:16:58.267Z,34.10
2017-09-23T14:19:33.075Z,24.97
2017-09-23T14:22:07.879Z,32.43
2017-09-23T14:24:42.797Z,33.90
2017-09-23T14:27:17.584Z,33.30
2017-09-23T14:29:52.314Z,33.23
2017-09-23T14:32:27.321Z,33.37
2017-09-23T14:35:01.920Z,32.37
2017-09-23T14:37:36.414Z,32.57
2017-09-23T14:40:11.082Z,33.77
2017-09-23T14:42:45.827Z,30.63
2017-09-23T14:45:20.635Z,28.17
2017-09-23T14:47:55.416Z,29.10
2017-09-23T14:50:30.167Z,24.63
2017-09-23T14:53:04.897Z,31.97
2017-09-23T14:55:39.500Z,33.00
2017-09-23T14:58:14.305Z,33.13
2017-09-23T15:00:49.930Z,30.07
2017-09-23T15:03:25.576Z,32.30
2017-09-23T15:06:00.440Z,32.83
2017-09-23T15:08:35.055Z,32.73
2017-09-23T15:11:09.747Z,31.20
2017-09-23T15:13:44.336Z,32.83
2017-09-23T15:16:18.926Z,31.10
2017-09-23T15:18:53.731Z,32.90
2017-09-23T15:21:28.473Z,31.83
2017-09-23T15:24:03.781Z,31.17
2017-09-23T15:26:38.295Z,32.80
2017-09-23T15:29:13.020Z,33.70
2017-09-23T15:31:47.718Z,26.47
2017-09-23T15:34:22.328Z,34.63
2017-09-23T15:36:57.167Z,35.80
2017-09-23T15:39:31.908Z,35.13
2017-09-23T15:42:06.812Z,36.10
2017-09-23T15:44:41.841Z,37.47
2017-09-23T15:47:16.274Z,36.57
2017-09-23T15:49:51.124Z,36.20
2017-09-23T15:52:25.959Z,35.50
2017-09-23T15:55:00.660Z,34.37
2017-09-23T15:57:35.233Z,36.10
2017-09-23T16:00:09.868Z,36.07
2017-09-23T16:02:44.489Z,34.33
2017-09-23T16:05:19.274Z,36.47
2017-09-23T16:07:54.104Z,30.47
2017-09-23T16:10:28.706Z,35.90
2017-09-23T16:13:03.810Z,36.93
2017-09-23T16:15:38.631Z,34.93
2017-09-23T16:18:13.287Z,33.60
2017-09-23T16:20:48.305Z,35.40
2017-09-23T16:23:23.018Z,40.40
2017-09-23T16:25:57.754Z,38.70
2017-09-23T16:28:32.455Z,38.00
2017-09-23T16:31:07.281Z,41.23
2017-09-23T16:33:41.945Z,40.77
2017-09-23T16:36:16.929Z,40.87
2017-09-23T16:38:51.755Z,42.63
2017-09-23T16:41:26.505Z,38.37
2017-09-23T16:44:01.217Z,37.57
2017-09-23T16:46:36.055Z,37.80
2017-09-23T16:49:10.611Z,38.20
2017-09-23T16:51:45.327Z,32.50
2017-09-23T16:54:20.009Z,39.90
2017-09-23T16:56:54.848Z,37.87
2017-09-23T16:59:29.695Z,35.20
2017-09-23T17:02:04.486Z,34.40
2017-09-23T17:04:40.294Z,39.23
2017-09-23T17:07:15.142Z,45.43
2017-09-23T17:09:50.744Z,50.23
2017-09-23T17:12:25.459Z,48.50
2017-09-23T17:15:00.639Z,49.13
2017-09-23T17:17:35.667Z,47.37
2017-09-23T17:20:10.276Z,53.17
2017-09-23T17:22:44.842Z,51.43
2017-09-23T17:25:19.398Z,46.17
2017-09-23T17:27:54.108Z,43.10
2017-09-23T17:30:28.915Z,41.97
2017-09-23T17:33:03.757Z,42.27
2017-09-23T17:35:38.352Z,40.97
2017-09-23T17:38:13.299Z,43.00
2017-09-23T17:40:48.123Z,42.87
2017-09-23T17:43:22.758Z,38.07
2017-09-23T17:45:57.588Z,40.37
2017-09-23T17:48:32.612Z,43.63
2017-09-23T17:51:07.571Z,39.90
2017-09-23T17:53:42.451Z,41.07
2017-09-23T17:56:18.037Z,41.67
2017-09-23T17:58:52.755Z,41.30
2017-09-23T18:01:27.475Z,42.07
2017-09-23T18:04:02.269Z,41.80
2017-09-23T18:06:36.892Z,44.67
2017-09-23T18:09:11.745Z,43.77
2017-09-23T18:11:46.397Z,42.80
2017-09-23T18:14:21.224Z,44.17
2017-09-23T18:16:56.164Z,43.00
2017-09-23T18:19:30.878Z,42.23
2017-09-23T18:22:05.655Z,44.67
2017-09-23T18:24:40.153Z,46.50
2017-09-23T18:27:14.751Z,43.20
2017-09-23T18:29:49.462Z,42.00
2017-09-23T18:32:24.232Z,41.50
2017-09-23T18:34:59.051Z,43.57
2017-09-23T18:37:33.903Z,42.03
2017-09-23T18:40:08.711Z,43.33
2017-09-23T18:42:43.543Z,45.20
2017-09-23T18:45:19.050Z,44.70
2017-09-23T18:47:54.092Z,45.37
2017-09-23T18:50:28.901Z,44.93
2017-09-23T18:53:03.795Z,45.03
2017-09-23T18:55:38.558Z,44.43
2017-09-23T18:58:13.372Z,45.07
2017-09-23T19:00:48.028Z,42.17
2017-09-23T19:03:22.712Z,48.47
2017-09-23T19:05:57.439Z,47.53
2017-09-23T19:08:32.086Z,46.83
2017-09-23T19:11:06.699Z,44.57
2017-09-23T19:13:41.334Z,46.67
2017-09-23T19:16:16.933Z,45.40
2017-09-23T19:18:51.666Z,44.90
2017-09-23T19:21:26.753Z,41.20
2017-09-23T19:24:02.487Z,44.87
2017-09-23T19:26:37.116Z,44.10
2017-09-23T19:29:11.820Z,44.70
2017-09-23T19:31:46.206Z,47.20
2017-09-23T19:34:20.975Z,46.83
2017-09-23T19:36:55.674Z,46.30
2017-09-23T19:39:30.607Z,48.83
2017-09-23T19:42:05.356Z,47.77
2017-09-23T19:44:39.908Z,44.10
2017-09-23T19:47:14.516Z,46.30
2017-09-23T19:49:58.381Z,44.40
2017-09-23T19:52:33.220Z,47.83
2017-09-23T19:55:08.352Z,46.07
2017-09-23T19:57:43.203Z,48.00
2017-09-23T20:00:19.665Z,49.57
2017-09-23T20:02:54.268Z,47.77
2017-09-23T20:05:28.987Z,49.07
2017-09-23T20:08:03.771Z,48.70
2017-09-23T20:10:38.710Z,46.57
2017-09-23T20:13:13.399Z,46.90
2017-09-23T20:15:48.141Z,46.47
2017-09-23T20:18:22.786Z,44.90
2017-09-23T20:20:57.228Z,45.50
2017-09-23T20:23:32.111Z,45.47
2017-09-23T20:26:06.839Z,44.97
2017-09-23T20:28:41.550Z,45.17
2017-09-23T20:31:17.214Z,42.30
2017-09-23T20:33:51.855Z,42.67
2017-09-23T20:36:26.491Z,45.33
2017-09-23T20:39:01.187Z,41.47
2017-09-23T20:41:35.814Z,40.87
2017-09-23T20:44:10.561Z,37.77
2017-09-23T20:46:45.514Z,38.17
2017-09-23T20:49:20.241Z,37.00
2017-09-23T20:51:55.041Z,38.17
2017-09-23T20:54:29.955Z,36.00
2017-09-23T20:57:04.886Z,35.13
2017-09-23T20:59:39.595Z,38.03
2017-09-23T21:02:14.515Z,43.73
2017-09-23T21:04:49.247Z,44.80
2017-09-23T21:07:24.123Z,44.83
2017-09-23T21:09:58.927Z,43.00
2017-09-23T21:12:33.430Z,44.30
2017-09-23T21:15:08.139Z,43.87
2017-09-23T21:17:42.862Z,43.60
2017-09-23T21:20:17.752Z,45.20
2017-09-23T21:22:52.478Z,46.53
2017-09-23T21:25:27.514Z,47.33
2017-09-23T21:28:03.086Z,47.90
2017-09-23T21:30:38.146Z,47.80
2017-09-23T21:33:12.975Z,46.87
2017-09-23T21:35:48.119Z,48.97
2017-09-23T21:38:23.543Z,46.40
2017-09-23T21:40:58.143Z,46.70
2017-09-23T21:43:32.933Z,44.80
2017-09-23T21:46:07.747Z,47.10
2017-09-23T21:48:43.370Z,49.00
2017-09-23T21:51:18.131Z,48.80
2017-09-23T21:53:52.955Z,50.27
2017-09-23T21:56:27.811Z,52.70
2017-09-23T21:59:02.633Z,47.60
2017-09-23T22:01:37.243Z,52.77
2017-09-23T22:04:11.976Z,51.40
2017-09-23T22:06:46.656Z,50.97
2017-09-23T22:09:21.476Z,55.50
2017-09-23T22:11:56.212Z,51.33
2017-09-23T22:14:30.716Z,55.17
2017-09-23T22:17:05.339Z,51.00
2017-09-23T22:19:40.059Z,53.80
2017-09-23T22:22:14.852Z,52.17
2017-09-23T22:24:49.876Z,50.13
2017-09-23T22:27:24.673Z,44.60
2017-09-23T22:29:59.503Z,41.90
2017-09-23T22:32:34.120Z,40.63
2017-09-23T22:35:09.012Z,40.40
2017-09-23T22:37:43.623Z,37.80
2017-09-23T22:40:19.244Z,40.33
2017-09-23T22:42:54.179Z,41.10
2017-09-23T22:45:28.919Z,44.20
2017-09-23T22:48:03.780Z,41.00
2017-09-23T22:50:38.403Z,39.90
2017-09-23T22:53:13.191Z,41.30
2017-09-23T22:55:47.853Z,45.00
2017-09-23T22:58:22.600Z,41.37
2017-09-23T23:00:57.170Z,41.33
2017-09-23T23:03:32.175Z,40.17
2017-09-23T23:06:06.830Z,40.27
2017-09-23T23:08:42.309Z,35.40
2017-09-23T23:11:17.911Z,40.70
2017-09-23T23:13:52.577Z,42.13
2017-09-23T23:16:27.196Z,41.07
2017-09-23T23:19:01.904Z,37.07
2017-09-23T23:21:36.346Z,38.40
2017-09-23T23:24:11.452Z,42.80
2017-09-23T23:26:46.381Z,42.67
2017-09-23T23:29:21.057Z,43.27
2017-09-23T23:31:55.836Z,43.70
2017-09-23T23:34:30.538Z,46.30
2017-09-23T23:37:05.626Z,46.50
2017-09-23T23:39:40.500Z,48.70
2017-09-23T23:42:15.216Z,49.23
2017-09-23T23:44:50.027Z,50.40
2017-09-23T23:47:24.880Z,52.30
2017-09-23T23:49:59.635Z,54.90
2017-09-23T23:52:34.143Z,52.03
2017-09-23T23:55:08.779Z,53.50
2017-09-23T23:57:43.451Z,54.10
